createdAt,value
2023-05-02T00:02:20.014Z,101662.09
2023-05-02T00:04:46.984Z,101664.72
2023-05-02T00:07:13.948Z,101666.44
2023-05-02T00:09:41.007Z,101664.72
2023-05-02T00:12:07.772Z,101668.22
2023-05-02T00:14:35.080Z,101670.81
2023-05-02T00:17:02.428Z,101663.84
2023-05-02T00:19:29.394Z,101669.06
2023-05-02T00:21:56.848Z,101667.31
2023-05-02T00:24:23.884Z,101672.56
2023-05-02T00:26:51.294Z,101672.53
2023-05-02T00:29:18.732Z,101669.88
2023-05-02T00:31:45.693Z,101669.00
2023-05-02T00:34:12.691Z,101672.44
2023-05-02T00:36:39.948Z,101673.28
2023-05-02T00:39:08.314Z,101673.28
2023-05-02T00:41:35.358Z,101672.44
2023-05-02T00:44:02.698Z,101680.22
2023-05-02T00:46:29.925Z,101680.16
2023-05-02T00:48:57.217Z,101670.56
2023-05-02T00:51:24.188Z,101674.91
2023-05-02T00:53:51.246Z,101679.22
2023-05-02T00:56:18.298Z,101675.72
2023-05-02T00:58:47.245Z,101683.53
2023-05-02T01:01:34.133Z,101679.22
2023-05-02T01:04:28.916Z,101684.41
2023-05-02T01:07:11.568Z,101701.81
2023-05-02T01:10:17.963Z,101702.69
2023-05-02T01:13:09.848Z,101708.78
2023-05-02T01:15:40.848Z,101696.59
2023-05-02T01:18:11.930Z,101699.19
2023-05-02T01:20:46.564Z,101705.25
2023-05-02T01:23:29.076Z,101704.38
2023-05-02T01:26:11.414Z,101709.59
2023-05-02T01:28:59.998Z,101708.78
2023-05-02T01:31:40.766Z,101710.50
2023-05-02T01:34:10.783Z,101718.34
2023-05-02T01:36:50.480Z,101710.50
2023-05-02T01:39:24.001Z,101714.13
2023-05-02T01:41:53.621Z,101717.53
2023-05-02T01:44:22.361Z,101727.16
2023-05-02T01:46:52.085Z,101727.13
2023-05-02T01:49:20.964Z,101730.63
2023-05-02T01:51:50.865Z,101731.47
2023-05-02T01:54:20.213Z,101743.72
2023-05-02T01:56:49.371Z,101736.75
2023-05-02T01:59:19.772Z,101740.25
2023-05-02T02:01:48.449Z,101742.00
2023-05-02T02:04:16.621Z,101733.28
2023-05-02T02:06:48.491Z,101747.25
2023-05-02T02:09:16.600Z,101744.66
2023-05-02T02:11:49.423Z,101748.13
2023-05-02T02:14:25.087Z,101750.72
2023-05-02T02:16:56.253Z,101762.94
2023-05-02T02:19:24.763Z,101755.97
2023-05-02T02:21:54.497Z,101760.31
2023-05-02T02:24:22.857Z,101751.59
2023-05-02T02:26:49.625Z,101764.69
2023-05-02T02:29:16.963Z,101764.66
2023-05-02T02:31:43.964Z,101764.66
2023-05-02T02:34:11.319Z,101759.44
2023-05-02T02:37:05.061Z,101763.81
2023-05-02T02:39:55.692Z,101764.66
2023-05-02T02:42:32.350Z,101766.41
2023-05-02T02:45:25.722Z,101771.63
2023-05-02T02:48:12.497Z,101768.19
2023-05-02T02:51:07.597Z,101777.72
2023-05-02T02:54:25.513Z,101780.34
2023-05-02T02:57:17.259Z,101776.00
2023-05-02T02:59:53.977Z,101769.03
2023-05-02T03:02:27.502Z,101779.47
2023-05-02T03:04:56.276Z,101777.75
2023-05-02T03:07:23.700Z,101781.25
2023-05-02T03:09:51.155Z,101786.47
2023-05-02T03:12:17.838Z,101784.75
2023-05-02T03:14:45.414Z,101780.41
2023-05-02T03:17:12.506Z,101789.09
2023-05-02T03:19:39.557Z,101790.84
2023-05-02T03:22:06.833Z,101790.84
2023-05-02T03:24:33.540Z,101797.81
2023-05-02T03:27:00.679Z,101790.94
2023-05-02T03:29:28.647Z,101796.13
2023-05-02T03:31:55.632Z,101796.13
2023-05-02T03:34:22.487Z,101799.56
2023-05-02T03:36:50.084Z,101802.16
2023-05-02T03:39:17.001Z,101801.31
2023-05-02T03:41:44.526Z,101799.53
2023-05-02T03:44:11.354Z,101804.78
2023-05-02T03:46:38.534Z,101803.03
2023-05-02T03:49:05.368Z,101803.91
2023-05-02T03:51:33.975Z,101809.16
2023-05-02T03:54:02.795Z,101815.22
2023-05-02T03:56:30.298Z,101815.22
2023-05-02T03:58:57.902Z,101811.75
2023-05-02T04:01:25.268Z,101820.44
2023-05-02T04:03:52.792Z,101824.81
2023-05-02T04:06:20.050Z,101830.00
2023-05-02T04:08:46.894Z,101828.25
2023-05-02T04:11:13.811Z,101837.81
2023-05-02T04:13:40.756Z,101838.72
2023-05-02T04:16:07.777Z,101844.81
2023-05-02T04:18:34.766Z,101830.88
2023-05-02T04:21:01.750Z,101843.09
2023-05-02T04:23:28.577Z,101843.09
2023-05-02T04:25:56.460Z,101850.88
2023-05-02T04:28:23.996Z,101850.00
2023-05-02T04:30:51.739Z,101856.97
2023-05-02T04:33:19.288Z,101849.09
2023-05-02T04:35:47.390Z,101863.88
2023-05-02T04:38:14.617Z,101858.63
2023-05-02T04:40:42.074Z,101867.25
2023-05-02T04:43:09.094Z,101872.44
2023-05-02T04:45:43.388Z,101867.22
2023-05-02T04:48:10.543Z,101879.38
2023-05-02T04:50:37.340Z,101888.00
2023-05-02T04:53:04.325Z,101886.16
2023-05-02T04:55:31.665Z,101896.59
2023-05-02T04:57:58.515Z,101901.84
2023-05-02T05:00:26.041Z,101900.97
2023-05-02T05:02:57.069Z,101910.66
2023-05-02T05:05:26.196Z,101910.50
2023-05-02T05:07:53.057Z,101920.81
2023-05-02T05:10:19.984Z,101926.13
2023-05-02T05:12:47.189Z,101922.69
2023-05-02T05:15:15.610Z,101928.78
2023-05-02T05:17:42.656Z,101936.63
2023-05-02T05:20:10.310Z,101934.88
2023-05-02T05:22:41.434Z,101937.47
2023-05-02T05:25:09.583Z,101943.50
2023-05-02T05:27:37.562Z,101945.25
2023-05-02T05:30:06.214Z,101942.69
2023-05-02T05:32:34.059Z,101948.78
2023-05-02T05:35:01.360Z,101950.56
2023-05-02T05:37:28.774Z,101950.56
2023-05-02T05:39:55.765Z,101953.13
2023-05-02T05:42:22.946Z,101962.72
2023-05-02T05:44:50.293Z,101971.41
2023-05-02T05:47:22.305Z,101975.72
2023-05-02T05:49:53.903Z,101979.22
2023-05-02T05:52:20.863Z,101974.81
2023-05-02T05:54:48.128Z,101983.56
2023-05-02T05:57:15.626Z,101983.56
2023-05-02T05:59:42.731Z,101982.72
2023-05-02T06:02:09.728Z,101993.19
2023-05-02T06:04:36.492Z,101988.00
2023-05-02T06:07:03.705Z,101990.63
2023-05-02T06:09:30.605Z,101999.38
2023-05-02T06:11:57.784Z,101992.41
2023-05-02T06:14:25.397Z,101996.00
2023-05-02T06:16:52.135Z,102004.75
2023-05-02T06:19:18.913Z,102008.34
2023-05-02T06:21:46.512Z,102006.59
2023-05-02T06:24:13.464Z,102015.34
2023-05-02T06:26:40.866Z,102018.84
2023-05-02T06:29:07.885Z,102021.50
2023-05-02T06:31:35.287Z,102025.00
2023-05-02T06:34:01.988Z,102031.09
2023-05-02T06:36:30.151Z,102034.59
2023-05-02T06:38:56.901Z,102041.56
2023-05-02T06:41:23.739Z,102043.34
2023-05-02T06:43:50.910Z,102044.16
2023-05-02T06:46:18.856Z,102050.25
2023-05-02T06:48:46.753Z,102061.47
2023-05-02T06:51:14.981Z,102062.31
2023-05-02T06:53:41.933Z,102065.78
2023-05-02T06:56:10.026Z,102066.69
2023-05-02T06:58:37.225Z,102083.13
2023-05-02T07:01:04.113Z,102086.59
2023-05-02T07:03:31.257Z,102081.25
2023-05-02T07:05:58.120Z,102086.34
2023-05-02T07:08:25.607Z,102091.56
2023-05-02T07:10:52.648Z,102092.44
2023-05-02T07:13:19.942Z,102094.25
2023-05-02T07:15:47.034Z,102093.41
2023-05-02T07:18:14.123Z,102098.59
2023-05-02T07:20:42.324Z,102110.81
2023-05-02T07:23:09.373Z,102110.88
2023-05-02T07:25:37.666Z,102117.88
2023-05-02T07:28:05.334Z,102124.91
2023-05-02T07:30:32.143Z,102118.88
2023-05-02T07:33:00.114Z,102127.56
2023-05-02T07:35:27.009Z,102130.16
2023-05-02T07:37:54.265Z,102137.22
2023-05-02T07:40:21.272Z,102132.97
2023-05-02T07:42:48.988Z,102140.78
2023-05-02T07:45:16.395Z,102135.56
2023-05-02T07:47:43.280Z,102152.22
2023-05-02T07:50:10.913Z,102147.84
2023-05-02T07:52:37.672Z,102156.66
2023-05-02T07:55:05.131Z,102160.19
2023-05-02T07:57:32.354Z,102166.31
2023-05-02T07:59:59.947Z,102165.47
2023-05-02T08:02:27.623Z,102164.56
2023-05-02T08:04:54.855Z,102169.78
2023-05-02T08:07:22.046Z,102171.47
2023-05-02T08:09:49.050Z,102170.47
2023-05-02T08:12:16.589Z,102170.53
2023-05-02T08:14:43.502Z,102173.97
2023-05-02T08:17:10.862Z,102177.47
2023-05-02T08:19:37.638Z,102179.25
2023-05-02T08:22:05.074Z,102193.19
2023-05-02T08:24:32.247Z,102194.88
2023-05-02T08:27:00.622Z,102195.63
2023-05-02T08:29:27.533Z,102203.41
2023-05-02T08:31:54.976Z,102211.16
2023-05-02T08:34:22.117Z,102226.03
2023-05-02T08:36:48.990Z,102233.03
2023-05-02T08:39:17.112Z,102236.47
2023-05-02T08:41:44.838Z,102228.84
2023-05-02T08:44:12.296Z,102229.81
2023-05-02T08:46:42.638Z,102237.03
2023-05-02T08:49:15.719Z,102239.00
2023-05-02T08:51:44.035Z,102241.78
2023-05-02T08:54:11.495Z,102245.31
2023-05-02T08:56:39.056Z,102246.34
2023-05-02T08:59:06.722Z,102242.84
2023-05-02T09:01:36.059Z,102243.03
2023-05-02T09:04:03.485Z,102249.84
2023-05-02T09:06:30.486Z,102251.63
2023-05-02T09:09:00.517Z,102259.53
2023-05-02T09:11:27.760Z,102262.16
2023-05-02T09:13:56.050Z,102270.97
2023-05-02T09:16:25.700Z,102271.75
2023-05-02T09:18:54.882Z,102277.91
2023-05-02T09:21:24.153Z,102284.97
2023-05-02T09:24:01.322Z,102278.13
2023-05-02T09:26:33.556Z,102278.22
2023-05-02T09:29:09.121Z,102287.75
2023-05-02T09:34:11.486Z,102288.78
2023-05-02T09:36:44.216Z,102290.63
2023-05-02T09:39:20.686Z,102290.53
2023-05-02T09:41:50.077Z,102292.28
2023-05-02T09:44:19.417Z,102287.81
2023-05-02T09:47:02.253Z,102296.75
2023-05-02T09:49:44.830Z,102301.97
2023-05-02T09:52:21.647Z,102302.91
2023-05-02T09:54:50.781Z,102309.00
2023-05-02T09:57:17.786Z,102311.50
2023-05-02T09:59:58.017Z,102310.63
2023-05-02T10:02:26.113Z,102316.66
2023-05-02T10:04:56.656Z,102318.34
2023-05-02T10:07:23.538Z,102314.75
2023-05-02T10:09:54.795Z,102318.88
2023-05-02T10:12:26.608Z,102314.34
2023-05-02T10:15:00.538Z,102328.22
2023-05-02T10:17:31.037Z,102323.06
2023-05-02T10:20:04.823Z,102325.72
2023-05-02T10:22:34.327Z,102321.47
2023-05-02T10:25:03.361Z,102333.72
2023-05-02T10:27:31.740Z,102331.91
2023-05-02T10:30:00.649Z,102333.59
2023-05-02T10:32:33.297Z,102340.56
2023-05-02T10:35:05.379Z,102326.56
2023-05-02T10:37:34.490Z,102337.91
2023-05-02T10:40:02.311Z,102330.06
2023-05-02T10:42:30.669Z,102337.00
2023-05-02T10:45:00.197Z,102339.59
2023-05-02T10:47:27.732Z,102342.34
2023-05-02T10:50:00.078Z,102344.16
2023-05-02T10:52:29.743Z,102347.72
2023-05-02T10:55:23.093Z,102348.69
2023-05-02T10:58:08.901Z,102349.59
2023-05-02T11:00:35.988Z,102348.91
2023-05-02T11:03:03.550Z,102344.75
2023-05-02T11:05:30.634Z,102348.19
2023-05-02T11:08:22.306Z,102350.09
2023-05-02T11:10:50.790Z,102344.13
2023-05-02T11:13:50.949Z,102347.81
2023-05-02T11:16:18.390Z,102343.56
2023-05-02T11:19:01.244Z,102353.31
2023-05-02T11:21:29.790Z,102352.41
2023-05-02T11:24:34.741Z,102351.53
2023-05-02T11:27:29.620Z,102347.22
2023-05-02T11:30:06.637Z,102345.66
2023-05-02T11:32:45.628Z,102348.25
2023-05-02T11:35:22.856Z,102342.91
2023-05-02T11:38:04.123Z,102352.47
2023-05-02T11:40:32.403Z,102342.69
2023-05-02T11:43:00.821Z,102341.84
2023-05-02T11:45:36.201Z,102347.97
2023-05-02T11:48:07.166Z,102357.56
2023-05-02T11:50:46.704Z,102358.66
2023-05-02T11:53:19.515Z,102364.81
2023-05-02T11:55:55.119Z,102366.50
2023-05-02T11:58:29.682Z,102363.06
2023-05-02T12:00:57.292Z,102365.81
2023-05-02T12:03:25.446Z,102371.16
2023-05-02T12:05:52.853Z,102374.63
2023-05-02T12:08:25.605Z,102368.59
2023-05-02T12:10:53.899Z,102373.81
2023-05-02T12:13:22.367Z,102367.69
2023-05-02T12:15:52.288Z,102370.31
2023-05-02T12:18:25.358Z,102371.22
2023-05-02T12:20:53.371Z,102376.44
2023-05-02T12:23:22.162Z,102377.28
2023-05-02T12:25:49.284Z,102377.34
2023-05-02T12:28:19.826Z,102380.81
2023-05-02T12:30:49.740Z,102378.22
2023-05-02T12:33:17.816Z,102379.16
2023-05-02T12:35:48.376Z,102379.19
2023-05-02T12:38:17.708Z,102382.75
2023-05-02T12:40:52.512Z,102395.00
2023-05-02T12:43:21.922Z,102392.38
2023-05-02T12:45:50.918Z,102392.38
2023-05-02T12:48:22.324Z,102393.22
2023-05-02T12:50:50.313Z,102389.69
2023-05-02T12:53:17.560Z,102394.09
2023-05-02T12:55:46.944Z,102405.53
2023-05-02T12:58:13.933Z,102398.50
2023-05-02T13:00:44.727Z,102402.88
2023-05-02T13:03:12.519Z,102403.75
2023-05-02T13:05:39.595Z,102408.09
2023-05-02T13:08:07.293Z,102402.72
2023-05-02T13:10:34.382Z,102400.09
2023-05-02T13:13:01.674Z,102409.03
2023-05-02T13:15:29.069Z,102407.25
2023-05-02T13:17:57.066Z,102391.41
2023-05-02T13:20:24.167Z,102397.44
2023-05-02T13:22:51.090Z,102397.84
2023-05-02T13:25:18.042Z,102397.53
2023-05-02T13:27:46.044Z,102398.28
2023-05-02T13:30:13.480Z,102388.88
2023-05-02T13:32:41.504Z,102388.63
2023-05-02T13:35:09.086Z,102387.81
2023-05-02T13:37:36.179Z,102390.41
2023-05-02T13:40:05.061Z,102391.78
2023-05-02T13:42:32.349Z,102397.53
2023-05-02T13:44:59.643Z,102398.13
2023-05-02T13:47:27.659Z,102395.91
2023-05-02T13:49:54.505Z,102394.91
2023-05-02T13:52:22.088Z,102398.91
2023-05-02T13:54:49.099Z,102399.34
2023-05-02T13:57:16.228Z,102402.72
2023-05-02T13:59:43.024Z,102408.47
2023-05-02T14:02:10.212Z,102408.31
2023-05-02T14:04:38.477Z,102388.66
2023-05-02T14:07:05.222Z,102401.44
2023-05-02T14:09:32.131Z,102410.66
2023-05-02T14:12:00.272Z,102400.63
2023-05-02T14:14:27.970Z,102393.91
2023-05-02T14:16:55.014Z,102399.13
2023-05-02T14:19:21.999Z,102397.47
2023-05-02T14:21:48.996Z,102402.75
2023-05-02T14:24:16.615Z,102394.78
2023-05-02T14:26:43.339Z,102398.50
2023-05-02T14:29:11.349Z,102388.75
2023-05-02T14:31:38.374Z,102379.00
2023-05-02T14:34:07.514Z,102385.44
2023-05-02T14:36:36.535Z,102392.44
2023-05-02T14:39:03.644Z,102384.53
2023-05-02T14:41:32.129Z,102379.19
2023-05-02T14:43:58.830Z,102389.47
2023-05-02T14:46:25.813Z,102380.69
2023-05-02T14:48:52.752Z,102383.94
2023-05-02T14:51:19.914Z,102386.50
2023-05-02T14:53:48.501Z,102387.09
2023-05-02T14:56:17.340Z,102379.66
2023-05-02T14:58:44.439Z,102371.94
2023-05-02T15:01:19.787Z,102379.31
2023-05-02T15:04:04.318Z,102386.69
2023-05-02T15:06:34.437Z,102379.78
2023-05-02T15:09:01.993Z,102386.53
2023-05-02T15:11:29.178Z,102384.25
2023-05-02T15:13:58.445Z,102377.88
2023-05-02T15:16:26.967Z,102389.22
2023-05-02T15:18:54.452Z,102379.25
2023-05-02T15:21:22.703Z,102375.69
2023-05-02T15:23:50.129Z,102375.63
2023-05-02T15:26:18.939Z,102371.69
2023-05-02T15:28:46.499Z,102376.00
2023-05-02T15:31:13.939Z,102380.50
2023-05-02T15:33:41.371Z,102379.59
2023-05-02T15:36:09.403Z,102380.72
2023-05-02T15:38:39.425Z,102388.31
2023-05-02T15:41:10.445Z,102383.06
2023-05-02T15:43:38.189Z,102391.03
2023-05-02T15:46:05.122Z,102387.06
2023-05-02T15:48:33.728Z,102401.00
2023-05-02T15:51:02.763Z,102394.44
2023-05-02T15:53:30.041Z,102405.44
2023-05-02T15:55:57.167Z,102407.06
2023-05-02T15:58:24.102Z,102399.72
2023-05-02T16:00:52.418Z,102401.03
2023-05-02T16:03:20.204Z,102405.13
2023-05-02T16:05:48.158Z,102400.56
2023-05-02T16:08:15.219Z,102393.44
2023-05-02T16:10:43.541Z,102408.03
2023-05-02T16:13:10.751Z,102419.97
2023-05-02T16:15:40.816Z,102412.78
2023-05-02T16:18:08.460Z,102410.13
2023-05-02T16:20:36.768Z,102407.31
2023-05-02T16:23:04.363Z,102410.66
2023-05-02T16:25:31.991Z,102412.44
2023-05-02T16:27:58.900Z,102397.69
2023-05-02T16:30:27.270Z,102407.81
2023-05-02T16:32:54.977Z,102409.66
2023-05-02T16:35:21.841Z,102409.53
2023-05-02T16:37:49.528Z,102408.94
2023-05-02T16:40:16.428Z,102406.25
2023-05-02T16:42:46.232Z,102412.38
2023-05-02T16:45:13.368Z,102411.91
2023-05-02T16:47:41.465Z,102412.09
2023-05-02T16:50:09.354Z,102421.94
2023-05-02T16:52:38.178Z,102425.00
2023-05-02T16:55:05.441Z,102427.69
2023-05-02T16:57:32.810Z,102420.66
2023-05-02T17:00:00.554Z,102417.22
2023-05-02T17:02:28.672Z,102420.84
2023-05-02T17:04:55.879Z,102415.88
2023-05-02T17:07:26.464Z,102416.91
2023-05-02T17:09:55.748Z,102409.25
2023-05-02T17:12:23.337Z,102416.47
2023-05-02T17:14:52.049Z,102415.69
2023-05-02T17:17:23.882Z,102420.25
2023-05-02T17:19:52.537Z,102416.81
2023-05-02T17:22:19.770Z,102420.38
2023-05-02T17:24:49.538Z,102433.56
2023-05-02T17:27:16.717Z,102434.47
2023-05-02T17:29:43.723Z,102437.94
2023-05-02T17:32:11.313Z,102438.84
2023-05-02T17:34:38.899Z,102435.31
2023-05-02T17:37:07.418Z,102444.06
2023-05-02T17:39:34.712Z,102440.56
2023-05-02T17:42:01.781Z,102439.63
2023-05-02T17:44:31.563Z,102449.25
2023-05-02T17:46:58.641Z,102453.59
2023-05-02T17:49:25.765Z,102450.06
2023-05-02T17:51:53.331Z,102450.00
2023-05-02T17:54:21.964Z,102461.28
2023-05-02T17:56:50.689Z,102452.47
2023-05-02T17:59:18.848Z,102456.78
2023-05-02T18:01:45.863Z,102462.03
2023-05-02T18:04:14.709Z,102463.72
2023-05-02T18:06:41.807Z,102464.47
2023-05-02T18:09:08.827Z,102466.16
2023-05-02T18:11:36.601Z,102465.19
2023-05-02T18:14:06.128Z,102460.72
2023-05-02T18:16:34.413Z,102466.81
2023-05-02T18:19:01.865Z,102469.38
2023-05-02T18:21:29.050Z,102473.63
2023-05-02T18:23:56.929Z,102469.16
2023-05-02T18:26:23.909Z,102467.34
2023-05-02T18:28:53.379Z,102472.47
2023-05-02T18:31:21.383Z,102467.22
2023-05-02T18:33:48.461Z,102471.47
2023-05-02T18:36:20.520Z,102478.34
2023-05-02T18:38:48.506Z,102479.09
2023-05-02T18:41:15.260Z,102484.25
2023-05-02T18:43:42.363Z,102484.19
2023-05-02T18:46:09.549Z,102487.59
2023-05-02T18:48:36.935Z,102484.00
2023-05-02T18:51:06.442Z,102475.19
2023-05-02T18:53:33.371Z,102480.34
2023-05-02T18:56:00.671Z,102482.97
2023-05-02T18:58:28.516Z,102476.75
2023-05-02T19:00:55.593Z,102485.41
2023-05-02T19:03:23.699Z,102485.25
2023-05-02T19:05:51.437Z,102488.56
2023-05-02T19:08:18.223Z,102491.94
2023-05-02T19:10:52.264Z,102490.09
2023-05-02T19:13:19.273Z,102490.84
2023-05-02T19:15:47.139Z,102496.88
2023-05-02T19:18:16.847Z,102495.09
2023-05-02T19:20:44.258Z,102501.91
2023-05-02T19:23:19.541Z,102510.50
2023-05-02T19:25:57.781Z,102512.16
2023-05-02T19:28:25.860Z,102515.50
2023-05-02T19:30:58.614Z,102522.41
2023-05-02T19:33:25.668Z,102529.19
2023-05-02T19:35:54.296Z,102523.03
2023-05-02T19:38:21.763Z,102520.28
2023-05-02T19:40:49.547Z,102526.31
2023-05-02T19:43:16.647Z,102530.47
2023-05-02T19:45:43.452Z,102532.13
2023-05-02T19:48:11.716Z,102533.69
2023-05-02T19:50:39.493Z,102538.00
2023-05-02T19:53:06.781Z,102538.84
2023-05-02T19:55:33.868Z,102535.28
2023-05-02T19:58:02.570Z,102531.72
2023-05-02T20:00:29.252Z,102542.94
2023-05-02T20:02:57.466Z,102545.47
2023-05-02T20:05:25.236Z,102550.63
2023-05-02T20:07:52.566Z,102554.03
2023-05-02T20:10:19.328Z,102560.06
2023-05-02T20:12:47.113Z,102563.44
2023-05-02T20:15:14.553Z,102555.53
2023-05-02T20:17:42.965Z,102559.75
2023-05-02T20:20:11.451Z,102563.94
2023-05-02T20:22:39.983Z,102565.66
2023-05-02T20:25:10.513Z,102570.75
2023-05-02T20:27:38.168Z,102568.88
2023-05-02T20:30:06.445Z,102573.13
2023-05-02T20:32:33.645Z,102570.38
2023-05-02T20:35:01.143Z,102567.56
2023-05-02T20:37:29.288Z,102571.81
2023-05-02T20:39:56.600Z,102579.50
2023-05-02T20:42:25.571Z,102586.44
2023-05-02T20:45:00.043Z,102580.38
2023-05-02T20:47:28.673Z,102588.00
2023-05-02T20:49:56.980Z,102583.59
2023-05-02T20:52:23.832Z,102585.25
2023-05-02T20:54:58.154Z,102585.16
2023-05-02T20:57:24.965Z,102586.81
2023-05-02T20:59:52.545Z,102588.44
2023-05-02T21:02:19.552Z,102588.41
2023-05-02T21:04:46.640Z,102599.59
2023-05-02T21:07:13.875Z,102582.88
2023-05-02T21:09:40.956Z,102588.00
2023-05-02T21:12:07.979Z,102587.91
2023-05-02T21:14:35.091Z,102590.41
2023-05-02T21:17:02.756Z,102592.09
2023-05-02T21:19:33.057Z,102603.38
2023-05-02T21:22:00.578Z,102601.53
2023-05-02T21:24:28.041Z,102610.13
2023-05-02T21:26:55.161Z,102610.81
2023-05-02T21:29:22.027Z,102606.41
2023-05-02T21:31:48.832Z,102609.59
2023-05-02T21:34:15.936Z,102604.31
2023-05-02T21:36:43.333Z,102605.81
2023-05-02T21:39:10.314Z,102605.78
2023-05-02T21:41:38.671Z,102613.59
2023-05-02T21:44:06.045Z,102603.06
2023-05-02T21:46:33.143Z,102602.09
2023-05-02T21:49:00.042Z,102608.19
2023-05-02T21:51:26.954Z,102610.69
2023-05-02T21:53:53.989Z,102607.84
2023-05-02T21:56:21.667Z,102594.78
2023-05-02T21:58:51.376Z,102605.00
2023-05-02T22:01:18.988Z,102600.56
2023-05-02T22:03:46.429Z,102612.56
2023-05-02T22:06:13.514Z,102612.47
2023-05-02T22:08:41.259Z,102618.31
2023-05-02T22:11:09.494Z,102617.28
2023-05-02T22:13:37.072Z,102616.28
2023-05-02T22:16:04.088Z,102619.81
2023-05-02T22:18:31.066Z,102615.41
2023-05-02T22:20:58.624Z,102622.06
2023-05-02T22:23:25.501Z,102622.03
2023-05-02T22:25:52.852Z,102620.06
2023-05-02T22:28:21.354Z,102618.88
2023-05-02T22:30:48.262Z,102620.47
2023-05-02T22:33:15.260Z,102620.47
2023-05-02T22:35:42.170Z,102619.44
2023-05-02T22:38:09.282Z,102619.28
2023-05-02T22:40:36.762Z,102629.50
2023-05-02T22:43:03.887Z,102636.38
2023-05-02T22:45:31.048Z,102628.31
2023-05-02T22:47:58.385Z,102624.69
2023-05-02T22:50:26.393Z,102624.69
2023-05-02T22:52:57.278Z,102631.72
2023-05-02T22:55:24.884Z,102628.31
2023-05-02T22:57:52.033Z,102631.41
2023-05-02T23:00:18.763Z,102626.94
2023-05-02T23:02:46.116Z,102629.44
2023-05-02T23:05:13.063Z,102624.81
2023-05-02T23:07:40.345Z,102623.00
2023-05-02T23:10:07.835Z,102628.72
2023-05-02T23:12:35.007Z,102627.72
2023-05-02T23:15:02.375Z,102630.28
2023-05-02T23:17:30.550Z,102621.53
2023-05-02T23:19:57.467Z,102617.94
2023-05-02T23:22:24.547Z,102618.78
2023-05-02T23:24:52.571Z,102619.53
2023-05-02T23:27:19.282Z,102605.53
2023-05-02T23:29:48.187Z,102615.13
2023-05-02T23:32:16.147Z,102610.72
2023-05-02T23:34:43.295Z,102607.09
2023-05-02T23:37:11.465Z,102612.03
2023-05-02T23:39:38.537Z,102613.59
2023-05-02T23:42:06.530Z,102603.00
2023-05-02T23:44:33.720Z,102598.59
2023-05-02T23:47:00.892Z,102607.00
2023-05-02T23:49:28.248Z,102606.88
2023-05-02T23:51:55.510Z,102607.63
2023-05-02T23:54:22.560Z,102612.94
2023-05-02T23:56:50.470Z,102607.75
2023-05-02T23:59:17.351Z,102610.25
